Latest Weather Observations for Armidale Airport

IDN60801

Issued at 9:33 am EDT Sunday 1 February 2015 (issued every 30 minutes, with the page automatically refreshed every 10 minutes)

About weather observations | Map of weather stations | Latest weather observations for NSW | Other Formats
Station Details ID: 056238 Name: ARMIDALE AIRPORT AWS Lat: -30.53 Lon: 151.62 Height: 1079.0 m
Data from the previous 72 hours. | See also: Recent months for locations in New South Wales
Date/Time
EDT
Temp
°C
App
Temp
°C
Dew
Point
Rel
Hum
%
Delta-T
°C
Wind Press
QNH
hPa
Press
MSL
hPa
Rain
since 9 am
mm
Dir
 
Spd
km/h
Gust
km/h
Spd
kts
Gust
kts
01/09:30am 18.3 17.4 12.7 70 3.3 NE 9 11 5 6 1012.4 1006.3 0.0
01/09:00am 17.4 16.6 13.9 80 2.1 NE 11 13 6 7 1012.3 1006.2 0.0
01/08:30am 16.3 16.0 14.5 89 1.1 E 9 11 5 6 1012.3 1006.2 0.0
01/08:00am 14.7 14.4 14.4 98 0.2 E 9 11 5 6 1012.0 1005.9 0.0
01/07:30am 13.2 12.4 13.0 99 0.1 E 9 13 5 7 1011.8 1005.7 0.0
01/07:00am 11.6 10.3 11.4 99 0.1 E 9 13 5 7 1011.5 1005.4 0.0
01/06:30am 10.2 7.8 10.0 99 0.1 ENE 13 15 7 8 1011.1 1005.0 0.0
01/06:00am 10.9 8.7 10.7 99 0.1 ENE 13 13 7 7 1010.9 1004.8 0.0
01/05:30am 11.3 9.6 11.3 100 0.0 ENE 11 13 6 7 1010.7 1004.6 0.0
01/05:00am 11.4 9.4 11.4 100 0.0 ENE 13 15 7 8 1010.7 1004.6 0.0
01/04:52am 11.3 9.2 11.3 100 0.0 ENE 13 15 7 8 1010.7 1004.6 0.0
01/04:30am 11.6 9.2 11.4 99 0.1 ENE 15 15 8 8 1010.6 1004.5 0.0
01/04:08am 11.9 10.0 11.7 99 0.1 ENE 13 15 7 8 1010.8 1004.7 0.0
01/04:07am 11.8 9.8 11.6 99 0.1 ENE 13 15 7 8 1010.8 1004.7 0.0
01/04:00am 11.4 9.3 11.2 99 0.1 ENE 13 15 7 8 1010.9 1004.8 0.0
01/03:30am 11.5 9.8 11.3 99 0.1 ENE 11 13 6 7 1010.8 1004.7 0.0
01/03:00am 12.1 9.8 11.9 99 0.1 ENE 15 17 8 9 1011.0 1004.9 0.0
01/02:30am 12.5 10.4 12.3 99 0.1 ENE 15 15 8 8 1011.5 1005.4 0.0
01/02:00am 13.6 11.8 13.4 99 0.1 ENE 15 20 8 11 1011.7 1005.6 0.0
01/01:30am 14.1 12.5 13.9 99 0.1 ENE 15 19 8 10 1012.0 1005.9 0.0
01/01:08am 14.3 12.8 14.1 99 0.1 ENE 15 20 8 11 1012.1 1006.0 0.0
01/01:00am 14.3 12.7 14.0 98 0.2 E 15 17 8 9 1012.3 1006.2 0.0
01/12:30am 14.7 12.5 14.4 98 0.2 ENE 19 22 10 12 1012.4 1006.3 0.0
01/12:16am 14.6 12.0 13.8 95 0.5 E 20 28 11 15 1012.5 1006.4 0.0
01/12:00am 13.5 10.6 11.0 85 1.4 ENE 17 19 9 10 1012.4 1006.3 0.0
 
Date/Time
EDT
Temp
°C
App
Temp
°C
Dew
Point
Rel
Hum
%
Delta-T
°C
Wind Press
QNH
hPa
Press
MSL
hPa
Rain
since 9 am
mm
Dir
 
Spd
km/h
Gust
km/h
Spd
kts
Gust
kts
31/11:30pm 12.4 9.8 6.0 65 3.2 E 9 13 5 7 1012.5 1006.4 0.0
31/11:00pm 13.4 11.2 5.3 58 4.0 ENE 6 17 3 9 1012.6 1006.5 0.0
31/10:30pm 15.0 12.5 3.8 47 5.5 S 6 7 3 4 1012.3 1006.2 0.0
31/10:00pm 17.7 14.4 2.5 36 7.4 S 9 11 5 6 1012.1 1006.0 0.0
31/09:30pm 17.6 14.4 3.1 38 7.1 S 9 11 5 6 1011.8 1005.7 0.0
31/09:00pm 17.4 14.4 4.0 41 6.7 S 9 11 5 6 1011.7 1005.6 0.0
31/08:30pm 17.3 13.9 3.9 41 6.6 SSW 11 17 6 9 1011.3 1005.1 0.0
31/08:00pm 17.5 13.9 4.8 43 6.4 SW 13 15 7 8 1010.8 1004.7 0.0
31/07:30pm 19.8 16.0 5.8 40 7.3 SW 15 19 8 10 1010.4 1004.2 0.0
31/07:00pm 21.6 16.8 4.7 33 8.8 WSW 19 24 10 13 1009.9 1003.8 0.0
31/06:30pm 22.4 17.0 4.5 31 9.3 WSW 22 30 12 16 1009.6 1003.4 0.0
31/06:00pm 22.9 17.0 3.9 29 9.8 WSW 24 30 13 16 1009.3 1003.1 0.0
31/05:30pm 23.5 18.1 4.5 29 9.9 W 22 28 12 15 1009.1 1003.0 0.0
31/05:00pm 23.3 17.6 4.8 30 9.7 WSW 24 32 13 17 1009.4 1003.2 0.0
31/04:30pm 23.4 18.6 5.8 32 9.4 WSW 20 32 11 17 1009.5 1003.3 0.0
31/04:00pm 23.4 18.1 2.8 26 10.5 W 20 32 11 17 1009.6 1003.4 0.0
31/03:30pm 23.6 18.6 6.4 33 9.3 WNW 22 33 12 18 1009.6 1003.4 0.0
31/03:00pm 23.4 16.6 4.9 30 9.8 W 30 39 16 21 1009.8 1003.7 0.0
31/02:30pm 23.0 15.9 3.5 28 10.0 W 30 44 16 24 1009.8 1003.7 0.0
31/02:00pm 23.0 18.1 5.0 31 9.5 W 20 30 11 16 1010.0 1003.9 0.0
31/01:30pm 22.8 17.5 6.6 35 8.8 W 24 35 13 19 1010.4 1004.2 0.0
31/01:00pm 22.2 16.8 6.4 36 8.5 WNW 24 35 13 19 1010.6 1004.5 0.0
31/12:30pm 22.1 15.9 6.3 36 8.5 W 28 41 15 22 1010.8 1004.7 0.0
31/12:00pm 21.8 16.3 6.1 36 8.4 W 24 33 13 18 1011.0 1004.9 0.0
31/11:30am 21.4 16.4 4.5 33 8.7 W 20 35 11 19 1011.3 1005.1 0.0
31/11:00am 21.2 15.6 5.5 36 8.3 W 24 33 13 18 1011.4 1005.2 0.0
31/10:30am 20.9 16.0 4.9 35 8.3 WNW 20 28 11 15 1011.4 1005.2 0.0
31/10:00am 20.7 16.2 6.3 39 7.7 WNW 19 24 10 13 1011.4 1005.2 0.0
31/09:30am 19.7 15.4 5.4 39 7.4 WNW 17 20 9 11 1011.4 1005.2 0.0
31/09:00am 18.5 15.4 5.7 43 6.6 NW 11 15 6 8 1011.4 1005.2 0.0
31/08:30am 17.5 15.7 7.3 51 5.4 NNW 6 9 3 5 1011.5 1005.4 0.0
31/08:00am 15.4 15.0 8.4 63 3.8 CALM 0 0 0 0 1011.5 1005.4 0.0
31/07:30am 13.6 11.4 7.8 68 3.0 N 9 9 5 5 1011.3 1005.1 0.0
31/07:00am 11.4 9.3 6.7 73 2.4 NNE 7 9 4 5 1010.9 1004.8 0.0
31/06:30am 9.1 6.7 5.1 76 1.9 N 7 9 4 5 1010.7 1004.6 0.0
31/06:00am 9.6 7.0 4.4 70 2.5 NE 7 9 4 5 1010.5 1004.3 0.0
31/05:30am 11.5 10.1 3.5 58 3.8 CALM 0 0 0 0 1010.4 1004.2 0.0
31/05:00am 12.0 9.6 4.5 60 3.6 WNW 6 7 3 4 1010.1 1004.0 0.0
31/04:30am 12.1 10.4 4.1 58 3.8 WSW 2 6 1 3 1010.0 1003.9 0.0
31/04:00am 11.7 9.6 5.6 66 3.0 W 6 7 3 4 1010.0 1003.9 0.0
31/03:30am 13.0 10.7 5.7 61 3.6 WNW 7 7 4 4 1010.0 1003.9 0.0
31/03:00am 11.9 9.1 5.1 63 3.3 NW 9 9 5 5 1010.0 1003.9 0.0
31/02:30am 12.5 11.3 4.5 58 3.9 CALM 0 0 0 0 1009.9 1003.8 0.0
31/02:00am 12.4 10.7 6.0 65 3.2 NNE 4 6 2 3 1010.1 1004.0 0.0
31/01:30am 12.6 10.5 5.8 63 3.4 WNW 6 6 3 3 1010.3 1004.1 0.0
31/01:00am 13.1 11.2 6.9 66 3.2 W 6 6 3 3 1010.7 1004.6 0.0
31/12:30am 13.0 11.2 7.0 67 3.1 W 6 7 3 4 1011.0 1004.9 0.0
31/12:00am 13.7 12.3 7.2 65 3.4 W 4 7 2 4 1011.4 1005.2 0.0
 
Date/Time
EDT
Temp
°C
App
Temp
°C
Dew
Point
Rel
Hum
%
Delta-T
°C
Wind Press
QNH
hPa
Press
MSL
hPa
Rain
since 9 am
mm
Dir
 
Spd
km/h
Gust
km/h
Spd
kts
Gust
kts
30/11:30pm 14.1 12.4 7.4 64 3.5 W 6 7 3 4 1011.4 1005.2 0.0
30/11:00pm 15.4 13.4 6.9 57 4.4 WNW 7 9 4 5 1011.5 1005.4 0.0
30/10:30pm 15.9 13.9 6.9 55 4.7 WNW 7 9 4 5 1011.5 1005.4 0.0
30/10:00pm 15.8 13.9 7.6 58 4.3 NW 7 9 4 5 1011.4 1005.2 0.0
30/09:30pm 16.6 14.8 7.3 54 4.9 NNW 6 7 3 4 1011.1 1005.0 0.0
30/09:00pm 15.6 14.6 7.4 58 4.3 WNW 2 6 1 3 1011.0 1004.9 0.0
30/08:30pm 16.7 14.8 7.6 55 4.8 W 7 9 4 5 1010.8 1004.7 0.0
30/08:00pm 17.2 15.0 7.8 54 5.0 W 9 9 5 5 1010.7 1004.6 0.0
30/07:30pm 19.1 16.2 8.1 49 6.0 W 13 17 7 9 1010.4 1004.2 0.0
30/07:00pm 20.3 16.8 7.0 42 7.2 W 15 19 8 10 1010.3 1004.1 0.0
30/06:30pm 20.7 16.4 7.7 43 7.1 WNW 20 28 11 15 1009.8 1003.7 0.0
30/06:00pm 21.3 17.0 7.2 40 7.7 WNW 19 30 10 16 1009.6 1003.4 0.0
30/05:30pm 20.5 15.5 8.2 45 6.8 W 24 32 13 17 1009.7 1003.6 0.0
30/05:00pm 20.9 15.9 8.2 44 7.0 W 24 37 13 20 1009.9 1003.8 0.0
30/04:30pm 20.8 14.7 8.4 45 6.8 W 30 41 16 22 1010.1 1004.0 0.0
30/04:00pm 21.2 15.3 9.1 46 6.8 W 30 46 16 25 1010.4 1004.2 0.0
30/03:30pm 20.6 14.6 8.6 46 6.6 WSW 30 43 16 23 1010.6 1004.5 0.0
30/03:01pm 21.6 15.2 8.5 43 7.3 W 32 52 17 28 1010.7 1004.6 0.0
30/03:00pm 21.6 15.3 8.8 44 7.2 W 32 44 17 24 1010.7 1004.6 0.0
30/02:30pm 21.4 14.9 10.3 49 6.4 W 35 50 19 27 1010.9 1004.8 0.0
30/02:00pm 20.6 13.6 8.6 46 6.7 WSW 35 52 19 28 1011.1 1005.0 0.0
30/01:30pm 20.3 13.2 8.0 45 6.7 W 35 48 19 26 1011.4 1005.2 0.0
30/01:00pm 20.2 13.8 9.2 49 6.2 W 33 50 18 27 1011.6 1005.5 0.0
30/12:30pm 19.3 11.7 7.4 46 6.4 WSW 37 48 20 26 1011.8 1005.7 0.0
30/12:05pm 18.9 12.5 8.6 51 5.6 W 32 50 17 27 1011.9 1005.8 0.0
30/12:00pm 18.9 11.4 8.0 49 5.9 W 37 52 20 28 1011.8 1005.7 0.0
30/11:52am 18.9 12.4 8.3 50 5.8 W 32 52 17 28 1011.8 1005.7 0.0
30/11:30am 18.0 11.9 9.9 59 4.5 W 32 46 17 25 1012.0 1005.9 0.0
30/11:00am 18.4 12.4 10.0 58 4.7 W 32 44 17 24 1012.1 1006.0 0.0
30/10:30am 18.1 11.8 9.7 58 4.7 W 33 48 18 26 1012.0 1005.9 0.0
30/10:00am 17.3 12.4 10.0 62 4.1 WNW 26 35 14 19 1012.1 1006.0 0.0
30/09:30am 16.6 12.9 10.0 65 3.7 W 20 26 11 14 1012.3 1006.2 0.0
30/09:00am 15.8 12.4 10.6 71 2.9 WNW 19 22 10 12 1012.4 1006.3 0.2
30/08:30am 14.5 12.1 10.1 75 2.4 W 13 17 7 9 1012.3 1006.2 0.2
30/08:00am 13.2 11.3 10.6 84 1.4 NW 11 15 6 8 1012.1 1006.0 0.2
30/07:30am 11.5 9.4 9.6 88 1.0 WNW 11 13 6 7 1011.9 1005.8 0.2
30/07:00am 9.1 6.7 8.8 98 0.2 NW 11 11 6 6 1011.7 1005.6 0.2
30/06:30am 7.5 6.5 7.2 98 0.1 NNE 2 6 1 3 1011.6 1005.5 0.2
30/06:00am 7.8 7.2 7.5 98 0.2 CALM 0 0 0 0 1011.4 1005.2 0.2
30/05:30am 8.0 6.3 7.7 98 0.2 NE 6 7 3 4 1011.4 1005.2 0.2
30/05:00am 8.6 7.1 8.3 98 0.2 ESE 6 6 3 3 1011.3 1005.1 0.2
30/04:30am 8.3 6.5 8.0 98 0.2 ENE 7 7 4 4 1011.3 1005.1 0.2
30/04:00am 8.9 7.3 8.6 98 0.2 NE 7 9 4 5 1011.5 1005.4 0.2
30/03:30am 8.9 6.9 8.6 98 0.2 ENE 9 11 5 6 1011.8 1005.7 0.2
30/03:00am 9.2 6.8 8.6 96 0.3 ENE 11 11 6 6 1012.1 1006.0 0.2
30/02:30am 10.4 7.8 9.2 92 0.6 E 13 15 7 8 1012.5 1006.4 0.2
30/02:00am 9.6 7.2 8.5 93 0.6 E 11 11 6 6 1012.8 1006.7 0.2
30/01:30am 9.4 7.2 7.7 89 0.9 E 9 13 5 7 1012.9 1006.8 0.2
30/01:00am 10.3 8.3 7.0 80 1.7 NNE 7 7 4 4 1013.1 1007.1 0.2
30/12:30am 10.9 9.0 6.8 76 2.1 NE 6 7 3 4 1013.4 1007.3 0.2
30/12:00am 12.1 11.0 7.0 71 2.6 NE 2 6 1 3 1013.6 1007.5 0.2
 
Date/Time
EDT
Temp
°C
App
Temp
°C
Dew
Point
Rel
Hum
%
Delta-T
°C
Wind Press
QNH
hPa
Press
MSL
hPa
Rain
since 9 am
mm
Dir
 
Spd
km/h
Gust
km/h
Spd
kts
Gust
kts
29/11:30pm 11.6 9.7 6.5 71 2.6 N 6 7 3 4 1013.8 1007.7 0.2
29/11:00pm 12.4 11.5 6.2 66 3.1 CALM 0 0 0 0 1013.9 1007.9 0.2
29/10:30pm 12.2 11.4 6.7 69 2.8 CALM 0 0 0 0 1013.9 1007.9 0.2
29/10:00pm 12.9 12.2 7.1 68 3.0 CALM 0 0 0 0 1013.9 1007.9 0.2
29/09:30pm 13.3 12.0 7.5 68 3.0 S 4 6 2 3 1013.9 1007.9 0.2
29/09:00pm 13.9 12.0 7.4 65 3.4 SSW 7 9 4 5 1013.8 1007.7 0.2
29/08:30pm 14.3 11.8 8.0 66 3.3 SSW 11 13 6 7 1013.7 1007.6 0.2
29/08:00pm 15.1 12.1 7.6 61 4.0 SSW 13 15 7 8 1013.4 1007.3 0.2
29/07:30pm 16.8 13.4 7.7 55 4.8 SSW 15 19 8 10 1013.0 1006.9 0.2
29/07:00pm 17.6 13.1 7.1 50 5.6 SW 20 26 11 14 1012.7 1006.6 0.2
29/06:30pm 18.2 13.3 7.0 48 5.9 SSW 22 30 12 16 1012.4 1006.3 0.2
29/06:00pm 18.3 13.7 8.0 51 5.6 SSW 22 37 12 20 1012.1 1006.0 0.2
29/05:30pm 19.3 15.0 7.7 47 6.3 SW 20 26 11 14 1012.0 1005.9 0.2
29/05:00pm 18.8 13.1 6.6 45 6.5 SW 26 35 14 19 1011.9 1005.8 0.2
29/04:30pm 18.5 12.7 6.4 45 6.4 SW 26 33 14 18 1012.1 1006.0 0.2
29/04:00pm 19.5 14.7 7.3 45 6.6 SW 22 35 12 19 1012.0 1005.9 0.2
29/03:30pm 20.0 15.0 8.0 46 6.5 SW 24 35 13 19 1012.0 1005.9 0.2
29/03:00pm 20.0 14.8 7.4 44 6.8 SW 24 35 13 19 1012.1 1006.0 0.2
29/02:30pm 20.2 15.5 9.2 49 6.1 SW 24 35 13 19 1012.1 1006.0 0.2
29/02:00pm 18.9 13.6 7.0 46 6.3 SW 24 33 13 18 1012.5 1006.4 0.2
29/01:30pm 19.2 14.9 7.9 48 6.1 SW 20 33 11 18 1012.7 1006.6 0.2
29/01:00pm 18.7 14.8 8.7 52 5.5 WSW 19 26 10 14 1013.0 1006.9 0.2
29/12:30pm 18.4 15.3 10.3 59 4.6 SW 17 24 9 13 1013.4 1007.3 0.2
29/12:00pm 17.6 14.2 9.2 58 4.6 WSW 17 26 9 14 1013.7 1007.6 0.2
29/11:30am 17.5 16.3 11.5 68 3.4 SSW 9 20 5 11 1013.8 1007.7 0.2
29/11:00am 16.3 14.5 9.5 64 3.7 SW 9 17 5 9 1013.9 1007.9 0.2
29/10:30am 15.7 14.3 9.4 66 3.4 SW 7 17 4 9 1014.0 1008.0 0.2
29/10:00am 15.4 13.9 10.6 73 2.7 SE 9 15 5 8 1014.0 1008.0 0.0

Other Formats:

Comma delimited format used in spreadsheet applications
http://www.bom.gov.au/fwo/IDN60801/IDN60801.95773.axf

JavaScript Object Notation format (JSON) in row-major order
http://www.bom.gov.au/fwo/IDN60801/IDN60801.95773.json